Latest Weather Observations for Moruya Airport

IDN60801

Issued at 5:04 pm EST Saturday 18 April 2015 (issued every 30 minutes, with the page automatically refreshed every 10 minutes)

About weather observations | Map of weather stations | Latest weather observations for NSW | Other Formats
Station Details ID: 069148 Name: MORUYA AIRPORT AWS Lat: -35.90 Lon: 150.14 Height: 4.0 m
Data from the previous 72 hours. | See also: Recent months for locations in New South Wales
Date/Time
EST
Temp
°C
App
Temp
°C
Dew
Point
Rel
Hum
%
Delta-T
°C
Wind Press
QNH
hPa
Press
MSL
hPa
Rain
since 9 am
mm
Dir
 
Spd
km/h
Gust
km/h
Spd
kts
Gust
kts
18/05:00pm 21.1 23.6 19.9 93 0.8 N 6 7 3 4 1010.4 1010.3 0.0
18/04:30pm 22.3 23.5 19.1 82 2.0 N 11 15 6 8 1010.3 1010.2 0.0
18/04:00pm 21.3 23.1 19.6 90 1.1 NNW 9 11 5 6 1010.5 1010.4 0.0
18/03:30pm 22.0 23.4 19.5 86 1.6 N 11 13 6 7 1010.5 1010.4 0.0
18/03:00pm 21.8 24.0 20.4 92 0.9 NNE 9 11 5 6 1010.7 1010.6 0.0
18/02:30pm 22.8 25.9 21.1 90 1.1 NNE 6 9 3 5 1010.8 1010.7 0.0
18/02:00pm 22.8 25.2 20.1 85 1.7 NNE 7 9 4 5 1010.9 1010.8 0.0
18/01:30pm 23.3 24.8 18.8 76 2.8 N 9 13 5 7 1011.2 1011.1 0.0
18/01:00pm 23.3 24.9 18.2 73 3.2 N 7 15 4 8 1011.5 1011.4 0.0
18/12:30pm 22.9 24.0 18.0 74 3.1 NNW 9 15 5 8 1011.8 1011.7 0.0
18/12:00pm 22.1 23.9 19.6 86 1.6 N 9 15 5 8 1012.7 1012.6 0.0
18/11:30am 21.1 23.3 19.6 91 1.0 N 7 15 4 8 1013.3 1013.2 0.0
18/11:00am 20.2 23.3 20.2 100 0.0 NW 4 9 2 5 1013.7 1013.6 0.0
18/10:30am 20.2 24.0 20.2 100 0.0 CALM 0 6 0 3 1013.6 1013.5 0.0
18/10:00am 19.7 22.5 19.7 100 0.0 WSW 4 7 2 4 1013.9 1013.8 0.0
18/09:30am 19.1 22.0 19.1 100 0.0 WSW 2 6 1 3 1014.1 1014.0 0.0
18/08:30am 18.3 21.2 18.3 100 0.0 CALM 0 0 0 0 1014.5 1014.4 14.4
18/08:00am 18.0 20.4 18.0 100 0.0 W 2 7 1 4 1014.6 1014.5 14.4
18/07:30am 17.6 20.2 17.6 100 0.0 CALM 0 6 0 3 1014.8 1014.7 14.4
18/07:06am 16.9 19.3 16.9 100 0.0 CALM 0 0 0 0 1014.4 1014.3 14.4
18/07:00am 16.5 18.7 16.5 100 0.0 CALM 0 0 0 0 1014.4 1014.3 14.4
18/06:45am 16.1 18.1 16.1 100 0.0 CALM 0 0 0 0 1014.3 1014.2 14.4
18/06:30am 16.3 17.1 16.3 100 0.0 WSW 7 9 4 5 1014.2 1014.1 14.4
18/06:00am 16.5 18.7 16.5 100 0.0 CALM 0 0 0 0 1014.0 1013.9 14.4
18/05:30am 16.7 17.6 16.7 100 0.0 WSW 7 9 4 5 1013.9 1013.8 14.4
18/05:16am 16.8 19.1 16.8 100 0.0 CALM 0 6 0 3 1014.1 1014.0 14.4
18/05:00am 16.9 19.3 16.9 100 0.0 CALM 0 0 0 0 1013.9 1013.8 14.4
18/04:56am 16.7 19.0 16.7 100 0.0 CALM 0 0 0 0 1013.9 1013.8 14.4
18/04:30am 16.9 19.3 16.9 100 0.0 CALM 0 0 0 0 1014.0 1013.9 14.4
18/04:00am 17.1 19.5 17.1 100 0.0 CALM 0 0 0 0 1014.4 1014.3 14.4
18/03:30am 17.3 18.7 17.3 100 0.0 NNW 6 11 3 6 1014.4 1014.3 14.4
18/03:00am 17.4 18.6 17.4 100 0.0 NNW 7 11 4 6 1014.5 1014.4 14.4
18/02:30am 17.5 18.8 17.5 100 0.0 N 7 11 4 6 1015.2 1015.1 14.2
18/02:00am 17.6 19.1 17.6 100 0.0 N 6 9 3 5 1015.9 1015.8 14.2
18/01:30am 17.6 18.9 17.6 100 0.0 NNW 7 9 4 5 1016.6 1016.5 14.2
18/01:00am 17.7 18.7 17.7 100 0.0 NNW 9 11 5 6 1017.3 1017.2 14.2
18/12:30am 17.6 19.1 17.6 100 0.0 NNW 6 7 3 4 1017.3 1017.2 14.2
18/12:00am 17.8 19.4 17.8 100 0.0 NNW 6 7 3 4 1017.6 1017.5 14.2
 
Date/Time
EST
Temp
°C
App
Temp
°C
Dew
Point
Rel
Hum
%
Delta-T
°C
Wind Press
QNH
hPa
Press
MSL
hPa
Rain
since 9 am
mm
Dir
 
Spd
km/h
Gust
km/h
Spd
kts
Gust
kts
17/11:30pm 17.9 19.3 17.9 100 0.0 N 7 11 4 6 1018.2 1018.1 14.2
17/11:05pm 17.9 19.3 17.9 100 0.0 N 7 13 4 7 1018.3 1018.2 14.2
17/11:00pm 17.9 19.0 17.9 100 0.0 N 9 13 5 7 1018.4 1018.3 14.2
17/10:30pm 18.0 19.1 18.0 100 0.0 NNW 9 15 5 8 1018.7 1018.6 14.2
17/10:00pm 17.9 19.0 17.9 100 0.0 N 9 13 5 7 1019.1 1019.0 14.2
17/09:37pm 17.9 19.0 17.9 100 0.0 N 9 11 5 6 1019.1 1019.0 14.2
17/09:30pm 17.9 19.0 17.9 100 0.0 N 9 15 5 8 1019.0 1018.9 14.2
17/09:16pm 17.9 19.0 17.9 100 0.0 N 9 13 5 7 1019.0 1018.9 14.2
17/09:00pm 17.9 19.3 17.9 100 0.0 NNE 7 11 4 6 1019.2 1019.1 14.2
17/08:30pm 17.9 19.0 17.9 100 0.0 N 9 15 5 8 1019.8 1019.7 14.2
17/08:00pm 17.8 19.2 17.8 100 0.0 N 7 11 4 6 1019.8 1019.7 14.2
17/07:30pm 17.6 20.2 17.6 100 0.0 CALM 0 4 0 2 1019.7 1019.6 14.0
17/07:00pm 17.6 19.9 17.6 100 0.0 WNW 2 7 1 4 1019.6 1019.5 14.0
17/06:30pm 17.6 20.2 17.6 100 0.0 CALM 0 0 0 0 1019.6 1019.5 14.0
17/06:23pm 17.7 20.4 17.7 100 0.0 CALM 0 0 0 0 1019.6 1019.5 14.0
17/06:22pm 17.6 20.2 17.6 100 0.0 CALM 0 0 0 0 1019.6 1019.5 14.0
17/06:00pm 17.7 20.4 17.7 100 0.0 CALM 0 0 0 0 1019.6 1019.5 13.8
17/05:30pm 17.8 20.5 17.8 100 0.0 CALM 0 0 0 0 1019.6 1019.5 13.6
17/05:00pm 17.9 20.7 17.9 100 0.0 CALM 0 6 0 3 1019.5 1019.4 13.6
17/04:30pm 18.1 20.2 18.1 100 0.0 WNW 4 6 2 3 1019.8 1019.7 13.6
17/04:00pm 18.1 19.8 18.1 100 0.0 NW 6 9 3 5 1020.1 1020.1 13.4
17/03:30pm 18.1 19.8 18.1 100 0.0 NNE 6 9 3 5 1020.4 1020.4 13.2
17/03:00pm 18.1 18.9 18.1 100 0.0 NE 11 15 6 8 1020.8 1020.8 13.0
17/02:30pm 17.7 20.0 17.7 100 0.0 NE 2 7 1 4 1021.2 1021.2 12.6
17/02:00pm 17.6 19.9 17.6 100 0.0 ENE 2 6 1 3 1021.6 1021.6 11.8
17/01:30pm 17.7 19.1 17.7 100 0.0 E 7 11 4 6 1021.9 1021.9 10.2
17/01:01pm 17.6 18.5 17.6 100 0.0 ENE 9 11 5 6 1022.3 1022.3 9.4
17/01:00pm 17.5 18.4 17.5 100 0.0 ENE 9 11 5 6 1022.3 1022.3 9.4
17/12:30pm 17.4 20.0 17.4 100 0.0 CALM 0 0 0 0 1022.9 1022.9 8.2
17/12:00pm 17.4 20.0 17.4 100 0.0 CALM 0 0 0 0 1023.6 1023.6 5.8
17/11:56am 17.4 20.0 17.4 100 0.0 CALM 0 0 0 0 1023.7 1023.7 5.6
17/11:36am 17.4 20.0 17.4 100 0.0 CALM 0 0 0 0 1023.9 1023.9 4.6
17/11:30am 17.4 20.0 17.4 100 0.0 CALM 0 2 0 1 1024.0 1024.0 4.6
17/11:26am 17.3 19.4 17.3 100 0.0 NNW 2 6 1 3 1024.0 1024.0 4.4
17/11:23am 17.3 19.4 17.3 100 0.0 NNW 2 7 1 4 1024.1 1024.1 4.4
17/11:00am 17.3 19.4 17.3 100 0.0 W 2 6 1 3 1024.4 1024.4 3.8
17/10:30am 17.0 19.4 17.0 100 0.0 CALM 0 6 0 3 1024.7 1024.7 2.6
17/10:25am 17.3 19.8 17.3 100 0.0 CALM 0 0 0 0 1024.8 1024.8 2.4
17/10:10am 17.1 19.5 17.1 100 0.0 CALM 0 0 0 0 1024.9 1024.9 2.0
17/10:00am 17.1 19.5 17.1 100 0.0 CALM 0 0 0 0 1025.0 1025.0 1.8
17/09:54am 17.1 19.5 17.1 100 0.0 CALM 0 0 0 0 1025.1 1025.1 1.6
17/09:32am 16.9 18.5 16.9 100 0.0 WSW 4 7 2 4 1025.1 1025.1 1.0
17/09:30am 16.9 18.9 16.9 100 0.0 WSW 2 7 1 4 1025.1 1025.1 1.0
17/09:06am 17.0 19.0 17.0 100 0.0 WSW 2 6 1 3 1025.2 1025.2 0.0
17/09:00am 17.0 18.3 17.0 100 0.0 W 6 7 3 4 1025.2 1025.2 5.4
17/08:30am 16.9 17.9 16.9 100 0.0 WSW 7 9 4 5 1025.3 1025.3 4.6
17/08:00am 16.6 17.7 16.6 100 0.0 W 6 7 3 4 1025.0 1025.0 4.0
17/07:54am 16.5 17.6 16.5 100 0.0 W 6 7 3 4 1025.0 1025.0 4.0
17/07:30am 16.5 18.7 16.5 100 0.0 CALM 0 6 0 3 1024.8 1024.8 3.4
17/07:29am 16.5 18.7 16.5 100 0.0 CALM 0 4 0 2 1024.8 1024.8 3.4
17/07:28am 16.4 18.6 16.4 100 0.0 CALM 0 0 0 0 1024.8 1024.8 3.4
17/07:10am 16.4 17.8 16.4 100 0.0 WSW 4 7 2 4 1024.8 1024.8 3.0
17/07:09am 16.4 17.8 16.4 100 0.0 WSW 4 7 2 4 1024.8 1024.8 2.8
17/07:00am 16.3 17.3 16.3 100 0.0 WSW 6 7 3 4 1024.7 1024.7 2.6
17/06:49am 16.3 17.1 16.3 100 0.0 WSW 7 11 4 6 1024.5 1024.5 2.2
17/06:30am 16.4 17.2 16.4 100 0.0 WSW 7 9 4 5 1024.5 1024.5 1.6
17/06:00am 16.5 17.4 16.5 100 0.0 WSW 7 11 4 6 1024.3 1024.3 1.4
17/05:30am 16.6 17.5 16.6 100 0.0 W 7 9 4 5 1024.2 1024.2 1.0
17/05:00am 16.7 17.8 16.7 100 0.0 W 6 7 3 4 1023.8 1023.8 1.0
17/04:30am 16.7 17.8 16.7 100 0.0 W 6 9 3 5 1023.7 1023.7 1.0
17/04:00am 16.8 17.8 16.8 100 0.0 WNW 7 11 4 6 1023.6 1023.6 1.0
17/03:30am 17.2 18.5 17.2 100 0.0 SW 6 7 3 4 1023.4 1023.4 0.8
17/03:00am 17.8 18.5 17.0 95 0.5 SSE 9 13 5 7 1023.5 1023.5 0.6
17/02:30am 17.5 17.9 17.2 98 0.2 SSE 11 17 6 9 1023.8 1023.8 0.6
17/02:00am 17.3 18.5 17.3 100 0.0 S 7 11 4 6 1024.4 1024.4 0.6
17/01:30am 17.3 18.5 17.3 100 0.0 SW 7 11 4 6 1024.6 1024.6 0.6
17/01:00am 17.7 18.2 17.5 99 0.1 SSW 11 15 6 8 1024.9 1024.9 0.6
17/12:30am 18.1 18.7 17.6 97 0.3 SE 11 15 6 8 1024.8 1024.8 0.6
17/12:00am 18.1 18.7 17.8 98 0.2 SSE 11 15 6 8 1024.8 1024.8 0.6
 
Date/Time
EST
Temp
°C
App
Temp
°C
Dew
Point
Rel
Hum
%
Delta-T
°C
Wind Press
QNH
hPa
Press
MSL
hPa
Rain
since 9 am
mm
Dir
 
Spd
km/h
Gust
km/h
Spd
kts
Gust
kts
16/11:30pm 18.4 19.4 17.8 96 0.4 ESE 9 15 5 8 1025.0 1025.0 0.4
16/11:00pm 18.8 19.9 18.0 95 0.5 SE 9 13 5 7 1024.8 1024.8 0.4
16/10:30pm 18.5 19.7 18.2 98 0.2 SE 9 13 5 7 1024.7 1024.7 0.2
16/10:00pm 18.3 19.0 18.0 98 0.2 SE 11 13 6 7 1024.9 1024.9 0.2
16/09:30pm 18.5 19.5 17.7 95 0.5 SE 9 13 5 7 1025.0 1025.0 0.0
16/09:00pm 19.3 19.7 17.3 88 1.2 SE 11 17 6 9 1024.6 1024.6 0.0
16/08:30pm 19.6 19.5 17.0 85 1.6 SE 13 17 7 9 1024.2 1024.2 0.0
16/08:00pm 19.5 19.0 16.9 85 1.6 SE 15 20 8 11 1023.8 1023.8 0.0
16/07:30pm 19.7 19.5 16.7 83 1.8 ESE 13 19 7 10 1023.9 1023.9 0.0
16/07:00pm 19.6 19.4 16.6 83 1.8 SSE 13 19 7 10 1023.5 1023.5 0.0
16/06:30pm 19.5 20.1 16.7 84 1.7 SSE 9 17 5 9 1023.2 1023.2 0.0
16/06:00pm 19.8 19.8 17.2 85 1.6 SE 13 20 7 11 1023.1 1023.1 0.0
16/05:30pm 20.2 20.1 17.0 82 1.9 ESE 13 17 7 9 1022.6 1022.6 0.0
16/05:00pm 20.4 20.7 17.8 85 1.6 ESE 13 19 7 10 1022.2 1022.2 0.0
16/04:30pm 20.5 20.8 17.9 85 1.6 ESE 13 17 7 9 1021.9 1021.9 0.0
16/04:00pm 20.6 20.8 17.6 83 1.8 ESE 13 17 7 9 1021.5 1021.5 0.0
16/03:30pm 20.6 20.8 17.6 83 1.8 ESE 13 17 7 9 1021.4 1021.4 0.0
16/03:00pm 20.8 20.7 17.8 83 1.8 ESE 15 19 8 10 1021.2 1021.2 0.0
16/02:30pm 21.6 21.9 17.8 79 2.4 ESE 13 17 7 9 1021.4 1021.4 0.0
16/02:00pm 21.5 21.5 17.3 77 2.6 ESE 13 17 7 9 1021.4 1021.4 0.0
16/01:30pm 22.1 22.0 17.0 73 3.1 ESE 13 19 7 10 1021.0 1021.0 0.0
16/01:00pm 21.7 21.8 17.5 77 2.6 ESE 13 17 7 9 1021.2 1021.2 0.0
16/12:30pm 22.1 21.5 17.5 75 2.8 ESE 17 22 9 12 1021.3 1021.3 0.0
16/12:00pm 22.4 21.9 17.8 75 2.8 SSE 17 20 9 11 1021.6 1021.6 0.0
16/11:30am 22.2 21.4 17.1 73 3.1 SE 17 22 9 12 1021.8 1021.8 0.0
16/11:00am 22.4 21.8 17.5 74 3.0 SE 17 22 9 12 1022.0 1022.0 0.0
16/10:30am 22.6 22.4 17.5 73 3.2 SSE 15 22 8 12 1021.9 1021.9 0.0
16/10:00am 22.2 21.4 17.1 73 3.1 S 17 26 9 14 1021.9 1021.9 0.0
16/09:30am 22.3 22.1 17.7 75 2.9 S 15 20 8 11 1021.7 1021.7 0.0
16/09:00am 21.9 20.9 17.9 78 2.5 SSE 20 28 11 15 1021.7 1021.7 0.0
16/08:30am 22.0 22.2 18.6 81 2.1 S 15 24 8 13 1021.0 1021.0 0.0
16/08:00am 21.8 21.0 15.2 66 3.9 SW 13 17 7 9 1020.6 1020.6 0.0
16/07:30am 23.5 22.6 14.8 58 5.2 WNW 13 20 7 11 1019.7 1019.6 0.0
16/07:00am 22.3 21.2 14.4 61 4.6 NW 13 20 7 11 1019.2 1019.1 0.0
16/06:30am 22.6 21.5 14.2 59 4.9 NW 13 20 7 11 1019.0 1018.9 0.0
16/06:00am 22.9 21.8 14.2 58 5.1 NW 13 20 7 11 1018.8 1018.7 0.0
16/05:30am 22.7 21.7 14.5 60 4.8 WNW 13 24 7 13 1018.4 1018.3 0.0
16/05:00am 21.9 21.6 14.5 63 4.3 NW 9 17 5 9 1018.0 1017.9 0.0
16/04:30am 22.5 22.0 14.9 62 4.5 NW 11 20 6 11 1018.0 1017.9 0.0
16/04:00am 21.4 20.9 15.0 67 3.8 NW 11 20 6 11 1017.8 1017.7 0.0
16/03:30am 21.0 20.8 15.8 72 3.1 NW 11 19 6 10 1017.7 1017.6 0.0
16/03:00am 18.5 18.4 17.0 91 0.9 NNW 13 19 7 10 1017.8 1017.7 0.0
16/02:30am 14.4 14.1 14.4 100 0.0 NW 9 11 5 6 1018.2 1018.1 0.0
16/02:00am 14.1 13.7 14.1 100 0.0 NNW 9 11 5 6 1018.5 1018.4 0.0
16/01:30am 14.0 14.1 14.0 100 0.0 NW 6 7 3 4 1018.8 1018.7 0.0
16/01:25am 13.9 14.8 13.9 100 0.0 NW 2 7 1 4 1018.9 1018.8 0.0
16/01:00am 14.2 15.5 14.2 100 0.0 CALM 0 4 0 2 1019.2 1019.1 0.0
16/12:59am 14.3 15.7 14.3 100 0.0 CALM 0 4 0 2 1019.2 1019.1 0.0
16/12:30am 14.4 15.1 14.4 100 0.0 NW 4 7 2 4 1019.5 1019.4 0.0
16/12:10am 14.7 15.5 14.7 100 0.0 N 4 9 2 5 1019.6 1019.5 0.0
16/12:00am 14.8 16.4 14.8 100 0.0 CALM 0 6 0 3 1019.7 1019.6 0.0
 
Date/Time
EST
Temp
°C
App
Temp
°C
Dew
Point
Rel
Hum
%
Delta-T
°C
Wind Press
QNH
hPa
Press
MSL
hPa
Rain
since 9 am
mm
Dir
 
Spd
km/h
Gust
km/h
Spd
kts
Gust
kts
15/11:58pm 14.7 16.2 14.7 100 0.0 CALM 0 0 0 0 1019.7 1019.6 0.0
15/11:30pm 15.0 16.6 15.0 100 0.0 CALM 0 0 0 0 1020.0 1020.0 0.0
15/11:28pm 15.1 16.8 15.1 100 0.0 CALM 0 0 0 0 1020.1 1020.1 0.0
15/11:10pm 15.2 15.8 15.2 100 0.0 NW 6 7 3 4 1020.2 1020.2 0.0
15/11:00pm 14.8 15.6 14.8 100 0.0 NW 4 7 2 4 1020.3 1020.3 0.0
15/10:57pm 14.8 16.0 14.8 100 0.0 NW 2 7 1 4 1020.2 1020.2 0.0
15/10:39pm 15.1 15.1 15.1 100 0.0 NW 9 11 5 6 1020.4 1020.4 0.0
15/10:30pm 15.4 15.5 15.4 100 0.0 NW 9 11 5 6 1020.6 1020.6 0.0
15/10:20pm 15.3 15.3 15.3 100 0.0 NW 9 11 5 6 1020.6 1020.6 0.0
15/10:00pm 14.4 15.4 14.4 100 0.0 WNW 2 7 1 4 1020.8 1020.8 0.0
15/09:30pm 14.8 16.4 14.8 100 0.0 CALM 0 0 0 0 1020.9 1020.9 0.0
15/09:00pm 15.1 16.8 15.1 100 0.0 CALM 0 0 0 0 1020.8 1020.8 0.0
15/08:30pm 15.4 17.2 15.4 100 0.0 CALM 0 0 0 0 1021.0 1021.0 0.0
15/08:00pm 16.1 18.1 16.1 100 0.0 CALM 0 0 0 0 1021.0 1021.0 0.0
15/07:30pm 16.7 19.0 16.7 100 0.0 CALM 0 2 0 1 1021.0 1021.0 0.0
15/07:28pm 16.5 18.7 16.5 100 0.0 CALM 0 2 0 1 1021.0 1021.0 0.0
15/07:26pm 16.7 19.0 16.7 100 0.0 CALM 0 2 0 1 1020.9 1020.9 0.0
15/07:05pm 16.8 19.1 16.8 100 0.0 CALM 0 4 0 2 1021.1 1021.1 0.0
15/07:00pm 16.8 18.7 16.8 100 0.0 WNW 2 7 1 4 1021.1 1021.1 0.0
15/06:50pm 17.4 18.6 17.4 100 0.0 WNW 7 11 4 6 1021.1 1021.1 0.0
15/06:30pm 17.6 19.9 17.6 100 0.0 NW 2 6 1 3 1021.0 1021.0 0.0
15/06:23pm 18.0 20.1 18.0 100 0.0 NW 4 6 2 3 1021.1 1021.1 0.0
15/06:00pm 18.5 21.4 18.2 98 0.2 CALM 0 0 0 0 1020.9 1020.9 0.0
15/05:30pm 20.1 23.3 18.8 92 0.8 CALM 0 0 0 0 1020.8 1020.8 0.0
15/05:07pm 21.6 24.3 19.5 88 1.3 N 4 6 2 3 1021.0 1021.0 0.0

Other Formats:

Comma delimited format used in spreadsheet applications
http://www.bom.gov.au/fwo/IDN60801/IDN60801.95937.axf

JavaScript Object Notation format (JSON) in row-major order
http://www.bom.gov.au/fwo/IDN60801/IDN60801.95937.json